sensor_id;sensor_type;location;lat;lon;timestamp;temperature;humidity
1956;DHT22;978;48.314;11.562;2023-09-18T00:00:48;24.10;91.80
1956;DHT22;978;48.314;11.562;2023-09-18T00:03:16;24.10;91.80
1956;DHT22;978;48.314;11.562;2023-09-18T00:05:45;24.10;91.80
1956;DHT22;978;48.314;11.562;2023-09-18T00:08:14;24.10;91.80
1956;DHT22;978;48.314;11.562;2023-09-18T00:10:42;24.10;91.80
1956;DHT22;978;48.314;11.562;2023-09-18T00:13:13;24.20;91.80
1956;DHT22;978;48.314;11.562;2023-09-18T00:15:40;24.10;91.70
1956;DHT22;978;48.314;11.562;2023-09-18T00:18:11;24.10;91.70
1956;DHT22;978;48.314;11.562;2023-09-18T00:20:37;24.10;91.70
1956;DHT22;978;48.314;11.562;2023-09-18T00:23:04;24.10;91.70
1956;DHT22;978;48.314;11.562;2023-09-18T00:25:31;24.10;91.70
1956;DHT22;978;48.314;11.562;2023-09-18T00:27:58;24.10;91.70
1956;DHT22;978;48.314;11.562;2023-09-18T00:30:26;24.30;91.80
1956;DHT22;978;48.314;11.562;2023-09-18T00:32:52;24.10;91.70
1956;DHT22;978;48.314;11.562;2023-09-18T00:35:23;24.10;91.70
1956;DHT22;978;48.314;11.562;2023-09-18T00:37:51;24.10;91.70
1956;DHT22;978;48.314;11.562;2023-09-18T00:40:19;24.10;91.70
1956;DHT22;978;48.314;11.562;2023-09-18T00:42:48;24.80;91.90
1956;DHT22;978;48.314;11.562;2023-09-18T00:45:14;24.10;91.70
1956;DHT22;978;48.314;11.562;2023-09-18T00:47:42;24.10;91.70
1956;DHT22;978;48.314;11.562;2023-09-18T00:50:11;24.10;91.60
1956;DHT22;978;48.314;11.562;2023-09-18T00:52:44;24.20;91.70
1956;DHT22;978;48.314;11.562;2023-09-18T00:55:12;24.10;91.70
1956;DHT22;978;48.314;11.562;2023-09-18T00:57:39;24.20;91.70
1956;DHT22;978;48.314;11.562;2023-09-18T01:00:08;24.10;91.60
1956;DHT22;978;48.314;11.562;2023-09-18T01:02:35;24.10;91.60
1956;DHT22;978;48.314;11.562;2023-09-18T01:05:04;24.10;91.60
1956;DHT22;978;48.314;11.562;2023-09-18T01:07:32;24.10;91.60
1956;DHT22;978;48.314;11.562;2023-09-18T01:10:00;24.10;91.60
1956;DHT22;978;48.314;11.562;2023-09-18T01:12:38;25.40;91.90
1956;DHT22;978;48.314;11.562;2023-09-18T01:15:11;24.10;91.60
1956;DHT22;978;48.314;11.562;2023-09-18T01:17:39;24.10;91.60
1956;DHT22;978;48.314;11.562;2023-09-18T01:20:09;25.50;92.00
1956;DHT22;978;48.314;11.562;2023-09-18T01:22:38;24.10;91.60
1956;DHT22;978;48.314;11.562;2023-09-18T01:25:05;24.10;91.50
1956;DHT22;978;48.314;11.562;2023-09-18T01:27:35;24.10;91.60
1956;DHT22;978;48.314;11.562;2023-09-18T01:30:02;24.40;91.60
1956;DHT22;978;48.314;11.562;2023-09-18T01:32:34;24.10;91.50
1956;DHT22;978;48.314;11.562;2023-09-18T01:35:03;24.10;91.50
1956;DHT22;978;48.314;11.562;2023-09-18T01:37:42;24.10;91.50
1956;DHT22;978;48.314;11.562;2023-09-18T01:40:12;24.10;91.50
1956;DHT22;978;48.314;11.562;2023-09-18T01:42:39;24.10;91.50
1956;DHT22;978;48.314;11.562;2023-09-18T01:45:07;24.10;91.50
1956;DHT22;978;48.314;11.562;2023-09-18T01:47:34;24.10;91.50
1956;DHT22;978;48.314;11.562;2023-09-18T01:50:03;24.10;91.50
1956;DHT22;978;48.314;11.562;2023-09-18T01:52:32;24.10;91.50
1956;DHT22;978;48.314;11.562;2023-09-18T01:55:01;24.10;91.50
1956;DHT22;978;48.314;11.562;2023-09-18T01:57:30;24.10;91.40
1956;DHT22;978;48.314;11.562;2023-09-18T01:59:57;24.00;91.40
1956;DHT22;978;48.314;11.562;2023-09-18T02:02:25;24.10;91.40
1956;DHT22;978;48.314;11.562;2023-09-18T02:04:53;24.00;91.40
1956;DHT22;978;48.314;11.562;2023-09-18T02:07:20;24.10;91.40
1956;DHT22;978;48.314;11.562;2023-09-18T02:09:48;24.10;91.40
1956;DHT22;978;48.314;11.562;2023-09-18T02:12:16;24.10;91.40
1956;DHT22;978;48.314;11.562;2023-09-18T02:14:44;24.10;91.40
1956;DHT22;978;48.314;11.562;2023-09-18T02:17:12;24.30;91.40
1956;DHT22;978;48.314;11.562;2023-09-18T02:19:39;24.10;91.40
1956;DHT22;978;48.314;11.562;2023-09-18T02:22:06;24.00;91.30
1956;DHT22;978;48.314;11.562;2023-09-18T02:24:34;24.10;91.40
1956;DHT22;978;48.314;11.562;2023-09-18T02:27:03;24.10;91.30
1956;DHT22;978;48.314;11.562;2023-09-18T02:29:34;24.40;91.40
1956;DHT22;978;48.314;11.562;2023-09-18T02:32:01;24.10;91.30
1956;DHT22;978;48.314;11.562;2023-09-18T02:34:29;24.10;91.30
1956;DHT22;978;48.314;11.562;2023-09-18T02:36:56;24.10;91.30
1956;DHT22;978;48.314;11.562;2023-09-18T02:39:23;25.50;91.80
1956;DHT22;978;48.314;11.562;2023-09-18T02:41:51;24.10;91.20
1956;DHT22;978;48.314;11.562;2023-09-18T02:44:18;24.10;91.20
1956;DHT22;978;48.314;11.562;2023-09-18T02:46:48;24.10;91.30
1956;DHT22;978;48.314;11.562;2023-09-18T02:49:14;24.10;91.20
1956;DHT22;978;48.314;11.562;2023-09-18T02:51:41;24.10;91.20
1956;DHT22;978;48.314;11.562;2023-09-18T02:54:09;24.10;91.20
1956;DHT22;978;48.314;11.562;2023-09-18T02:56:36;24.10;91.20
1956;DHT22;978;48.314;11.562;2023-09-18T02:59:03;24.10;91.20
1956;DHT22;978;48.314;11.562;2023-09-18T03:01:31;24.10;91.20
1956;DHT22;978;48.314;11.562;2023-09-18T03:04:02;24.10;91.20
1956;DHT22;978;48.314;11.562;2023-09-18T03:06:30;24.10;91.20
1956;DHT22;978;48.314;11.562;2023-09-18T03:08:57;24.10;91.20
1956;DHT22;978;48.314;11.562;2023-09-18T03:11:23;24.10;91.20
1956;DHT22;978;48.314;11.562;2023-09-18T03:13:55;24.10;91.10
1956;DHT22;978;48.314;11.562;2023-09-18T03:16:22;24.10;91.10
1956;DHT22;978;48.314;11.562;2023-09-18T03:18:50;24.10;91.10
1956;DHT22;978;48.314;11.562;2023-09-18T03:21:18;24.70;91.30
1956;DHT22;978;48.314;11.562;2023-09-18T03:23:45;24.10;91.10
1956;DHT22;978;48.314;11.562;2023-09-18T03:26:14;24.20;91.10
1956;DHT22;978;48.314;11.562;2023-09-18T03:28:41;24.10;91.10
1956;DHT22;978;48.314;11.562;2023-09-18T03:31:09;24.10;91.10
1956;DHT22;978;48.314;11.562;2023-09-18T03:33:36;24.10;91.10
1956;DHT22;978;48.314;11.562;2023-09-18T03:36:03;25.50;91.50
1956;DHT22;978;48.314;11.562;2023-09-18T03:38:34;24.10;91.00
1956;DHT22;978;48.314;11.562;2023-09-18T03:41:01;24.10;91.00
1956;DHT22;978;48.314;11.562;2023-09-18T03:43:29;24.00;91.00
1956;DHT22;978;48.314;11.562;2023-09-18T03:46:03;24.10;91.00
1956;DHT22;978;48.314;11.562;2023-09-18T03:48:31;24.10;91.00
1956;DHT22;978;48.314;11.562;2023-09-18T03:51:03;24.10;91.00
1956;DHT22;978;48.314;11.562;2023-09-18T03:53:37;24.10;91.00
1956;DHT22;978;48.314;11.562;2023-09-18T03:56:04;24.10;91.00
1956;DHT22;978;48.314;11.562;2023-09-18T03:58:34;24.10;90.90
1956;DHT22;978;48.314;11.562;2023-09-18T04:01:01;24.10;91.00
1956;DHT22;978;48.314;11.562;2023-09-18T04:03:28;24.10;90.90
1956;DHT22;978;48.314;11.562;2023-09-18T04:05:56;24.10;90.90
1956;DHT22;978;48.314;11.562;2023-09-18T04:08:23;24.10;90.90
1956;DHT22;978;48.314;11.562;2023-09-18T04:10:56;24.10;90.90
1956;DHT22;978;48.314;11.562;2023-09-18T04:13:23;24.00;90.90
1956;DHT22;978;48.314;11.562;2023-09-18T04:15:51;24.10;91.00
1956;DHT22;978;48.314;11.562;2023-09-18T04:18:22;24.10;91.00
1956;DHT22;978;48.314;11.562;2023-09-18T04:20:51;24.10;91.00
1956;DHT22;978;48.314;11.562;2023-09-18T04:23:20;24.10;91.30
1956;DHT22;978;48.314;11.562;2023-09-18T04:25:47;24.10;91.10
1956;DHT22;978;48.314;11.562;2023-09-18T04:28:18;24.10;91.10
1956;DHT22;978;48.314;11.562;2023-09-18T04:30:46;25.60;91.40
1956;DHT22;978;48.314;11.562;2023-09-18T04:33:13;24.10;91.00
1956;DHT22;978;48.314;11.562;2023-09-18T04:35:40;24.10;91.10
1956;DHT22;978;48.314;11.562;2023-09-18T04:38:07;24.10;91.10
1956;DHT22;978;48.314;11.562;2023-09-18T04:40:37;24.10;91.00
1956;DHT22;978;48.314;11.562;2023-09-18T04:43:03;24.10;91.00
1956;DHT22;978;48.314;11.562;2023-09-18T04:45:33;25.50;91.50
1956;DHT22;978;48.314;11.562;2023-09-18T04:48:00;24.10;91.10
1956;DHT22;978;48.314;11.562;2023-09-18T04:50:26;24.10;91.00
1956;DHT22;978;48.314;11.562;2023-09-18T04:52:54;24.10;91.00
1956;DHT22;978;48.314;11.562;2023-09-18T04:55:23;24.10;91.10
1956;DHT22;978;48.314;11.562;2023-09-18T04:57:50;24.10;91.10
1956;DHT22;978;48.314;11.562;2023-09-18T05:00:19;24.10;91.00
1956;DHT22;978;48.314;11.562;2023-09-18T05:02:52;24.20;91.00
1956;DHT22;978;48.314;11.562;2023-09-18T05:05:19;24.10;91.10
1956;DHT22;978;48.314;11.562;2023-09-18T05:07:46;24.10;91.20
1956;DHT22;978;48.314;11.562;2023-09-18T05:10:14;24.10;91.00
1956;DHT22;978;48.314;11.562;2023-09-18T05:12:43;24.10;91.00
1956;DHT22;978;48.314;11.562;2023-09-18T05:15:11;24.90;91.20
1956;DHT22;978;48.314;11.562;2023-09-18T05:17:42;24.10;91.10
1956;DHT22;978;48.314;11.562;2023-09-18T05:20:12;24.10;91.00
1956;DHT22;978;48.314;11.562;2023-09-18T05:22:41;24.10;90.90
1956;DHT22;978;48.314;11.562;2023-09-18T05:25:08;24.10;91.00
1956;DHT22;978;48.314;11.562;2023-09-18T05:27:37;24.10;91.00
1956;DHT22;978;48.314;11.562;2023-09-18T05:30:12;24.10;91.00
1956;DHT22;978;48.314;11.562;2023-09-18T05:32:41;24.10;91.00
1956;DHT22;978;48.314;11.562;2023-09-18T05:35:08;24.10;91.10
1956;DHT22;978;48.314;11.562;2023-09-18T05:37:41;24.10;91.10
1956;DHT22;978;48.314;11.562;2023-09-18T05:40:10;24.20;91.00
1956;DHT22;978;48.314;11.562;2023-09-18T05:42:40;24.10;91.00
1956;DHT22;978;48.314;11.562;2023-09-18T05:45:09;24.10;91.10
1956;DHT22;978;48.314;11.562;2023-09-18T05:47:37;24.10;91.00
1956;DHT22;978;48.314;11.562;2023-09-18T05:50:09;24.10;91.00
1956;DHT22;978;48.314;11.562;2023-09-18T05:52:43;24.10;91.00
1956;DHT22;978;48.314;11.562;2023-09-18T05:55:10;24.10;91.00
1956;DHT22;978;48.314;11.562;2023-09-18T05:57:38;24.10;91.00
1956;DHT22;978;48.314;11.562;2023-09-18T06:00:06;24.10;91.00
1956;DHT22;978;48.314;11.562;2023-09-18T06:02:34;24.10;90.90
1956;DHT22;978;48.314;11.562;2023-09-18T06:05:03;24.10;90.50
1956;DHT22;978;48.314;11.562;2023-09-18T06:07:30;24.00;90.20
1956;DHT22;978;48.314;11.562;2023-09-18T06:10:01;24.10;89.80
1956;DHT22;978;48.314;11.562;2023-09-18T06:12:28;24.10;89.40
1956;DHT22;978;48.314;11.562;2023-09-18T06:14:57;24.00;89.00
1956;DHT22;978;48.314;11.562;2023-09-18T06:17:24;24.10;88.90
1956;DHT22;978;48.314;11.562;2023-09-18T06:19:51;24.10;88.80
1956;DHT22;978;48.314;11.562;2023-09-18T06:22:19;24.00;88.70
1956;DHT22;978;48.314;11.562;2023-09-18T06:24:48;24.00;88.60
1956;DHT22;978;48.314;11.562;2023-09-18T06:27:17;24.00;88.50
1956;DHT22;978;48.314;11.562;2023-09-18T06:29:46;24.30;88.60
1956;DHT22;978;48.314;11.562;2023-09-18T06:32:14;24.10;88.30
1956;DHT22;978;48.314;11.562;2023-09-18T06:34:43;24.10;88.00
1956;DHT22;978;48.314;11.562;2023-09-18T06:37:09;24.10;87.70
1956;DHT22;978;48.314;11.562;2023-09-18T06:39:38;24.00;87.60
1956;DHT22;978;48.314;11.562;2023-09-18T06:42:05;24.00;87.40
1956;DHT22;978;48.314;11.562;2023-09-18T06:44:35;24.00;87.40
1956;DHT22;978;48.314;11.562;2023-09-18T06:47:03;24.00;87.90
1956;DHT22;978;48.314;11.562;2023-09-18T06:49:30;24.00;87.60
1956;DHT22;978;48.314;11.562;2023-09-18T06:51:59;24.50;88.30
1956;DHT22;978;48.314;11.562;2023-09-18T06:54:25;24.00;88.30
1956;DHT22;978;48.314;11.562;2023-09-18T06:56:52;24.00;88.50
1956;DHT22;978;48.314;11.562;2023-09-18T06:59:22;24.00;88.70
1956;DHT22;978;48.314;11.562;2023-09-18T07:01:51;24.00;89.00
1956;DHT22;978;48.314;11.562;2023-09-18T07:04:19;24.10;89.10
1956;DHT22;978;48.314;11.562;2023-09-18T07:06:49;24.00;89.00
1956;DHT22;978;48.314;11.562;2023-09-18T07:09:17;24.10;89.10
1956;DHT22;978;48.314;11.562;2023-09-18T07:11:45;23.90;89.10
1956;DHT22;978;48.314;11.562;2023-09-18T07:14:12;24.00;89.20
1956;DHT22;978;48.314;11.562;2023-09-18T07:16:38;24.10;89.30
1956;DHT22;978;48.314;11.562;2023-09-18T07:19:07;24.20;89.40
1956;DHT22;978;48.314;11.562;2023-09-18T07:21:37;24.30;89.50
1956;DHT22;978;48.314;11.562;2023-09-18T07:24:06;24.00;89.40
1956;DHT22;978;48.314;11.562;2023-09-18T07:26:35;24.00;89.50
1956;DHT22;978;48.314;11.562;2023-09-18T07:29:02;24.20;89.60
1956;DHT22;978;48.314;11.562;2023-09-18T07:31:30;24.00;89.60
1956;DHT22;978;48.314;11.562;2023-09-18T07:34:00;24.00;89.50
1956;DHT22;978;48.314;11.562;2023-09-18T07:36:31;24.00;89.70
1956;DHT22;978;48.314;11.562;2023-09-18T07:39:01;24.00;89.70
1956;DHT22;978;48.314;11.562;2023-09-18T07:41:27;24.10;89.80
1956;DHT22;978;48.314;11.562;2023-09-18T07:43:57;23.90;89.70
1956;DHT22;978;48.314;11.562;2023-09-18T07:46:25;24.10;89.90
1956;DHT22;978;48.314;11.562;2023-09-18T07:48:53;24.00;89.90
1956;DHT22;978;48.314;11.562;2023-09-18T07:51:20;24.00;90.00
1956;DHT22;978;48.314;11.562;2023-09-18T07:53:50;24.10;90.00
1956;DHT22;978;48.314;11.562;2023-09-18T07:56:17;24.10;90.00
1956;DHT22;978;48.314;11.562;2023-09-18T07:58:44;24.00;90.00
1956;DHT22;978;48.314;11.562;2023-09-18T08:01:13;24.10;90.10
1956;DHT22;978;48.314;11.562;2023-09-18T08:03:41;24.10;90.10
1956;DHT22;978;48.314;11.562;2023-09-18T08:06:11;23.90;90.10
1956;DHT22;978;48.314;11.562;2023-09-18T08:08:40;24.10;90.20
1956;DHT22;978;48.314;11.562;2023-09-18T08:11:09;24.00;90.10
1956;DHT22;978;48.314;11.562;2023-09-18T08:13:44;24.10;90.20
1956;DHT22;978;48.314;11.562;2023-09-18T08:16:12;24.00;90.20
1956;DHT22;978;48.314;11.562;2023-09-18T08:18:39;24.10;90.20
1956;DHT22;978;48.314;11.562;2023-09-18T08:21:08;24.00;90.50
1956;DHT22;978;48.314;11.562;2023-09-18T08:23:35;24.00;90.20
1956;DHT22;978;48.314;11.562;2023-09-18T08:26:03;24.10;90.30
1956;DHT22;978;48.314;11.562;2023-09-18T08:28:33;24.10;90.30
1956;DHT22;978;48.314;11.562;2023-09-18T08:31:02;24.10;90.30
1956;DHT22;978;48.314;11.562;2023-09-18T08:33:30;24.10;90.30
1956;DHT22;978;48.314;11.562;2023-09-18T08:35:57;24.00;90.30
1956;DHT22;978;48.314;11.562;2023-09-18T08:38:24;24.10;90.30
1956;DHT22;978;48.314;11.562;2023-09-18T08:40:54;24.10;90.30
1956;DHT22;978;48.314;11.562;2023-09-18T08:43:21;24.10;90.40
1956;DHT22;978;48.314;11.562;2023-09-18T08:45:52;24.00;90.30
1956;DHT22;978;48.314;11.562;2023-09-18T08:48:28;24.00;90.40
1956;DHT22;978;48.314;11.562;2023-09-18T08:51:01;24.10;90.40
1956;DHT22;978;48.314;11.562;2023-09-18T08:53:32;24.10;90.40
1956;DHT22;978;48.314;11.562;2023-09-18T08:55:59;24.10;90.40
1956;DHT22;978;48.314;11.562;2023-09-18T08:58:32;24.00;90.40
1956;DHT22;978;48.314;11.562;2023-09-18T09:01:02;24.10;90.50
1956;DHT22;978;48.314;11.562;2023-09-18T09:03:32;24.10;90.50
1956;DHT22;978;48.314;11.562;2023-09-18T09:06:01;24.10;90.50
1956;DHT22;978;48.314;11.562;2023-09-18T09:08:32;24.00;90.50
1956;DHT22;978;48.314;11.562;2023-09-18T09:10:59;25.20;90.80
1956;DHT22;978;48.314;11.562;2023-09-18T09:13:26;24.00;90.50
1956;DHT22;978;48.314;11.562;2023-09-18T09:15:57;24.00;90.50
1956;DHT22;978;48.314;11.562;2023-09-18T09:18:28;25.20;90.80
1956;DHT22;978;48.314;11.562;2023-09-18T09:20:59;24.10;90.50
1956;DHT22;978;48.314;11.562;2023-09-18T09:23:27;24.50;90.60
1956;DHT22;978;48.314;11.562;2023-09-18T09:26:13;24.10;90.60
1956;DHT22;978;48.314;11.562;2023-09-18T09:28:44;24.00;90.50
1956;DHT22;978;48.314;11.562;2023-09-18T09:31:11;24.00;90.50
1956;DHT22;978;48.314;11.562;2023-09-18T09:33:51;24.10;90.60
1956;DHT22;978;48.314;11.562;2023-09-18T09:36:19;24.10;90.60
1956;DHT22;978;48.314;11.562;2023-09-18T09:38:46;24.10;90.60
1956;DHT22;978;48.314;11.562;2023-09-18T09:41:14;24.10;90.60
1956;DHT22;978;48.314;11.562;2023-09-18T09:43:42;24.10;90.60
1956;DHT22;978;48.314;11.562;2023-09-18T09:46:15;24.00;90.60
1956;DHT22;978;48.314;11.562;2023-09-18T09:49:00;24.00;90.60
1956;DHT22;978;48.314;11.562;2023-09-18T09:51:27;24.40;90.70
1956;DHT22;978;48.314;11.562;2023-09-18T09:53:59;24.00;90.60
1956;DHT22;978;48.314;11.562;2023-09-18T09:56:43;24.10;90.60
1956;DHT22;978;48.314;11.562;2023-09-18T09:59:13;24.10;90.60
1956;DHT22;978;48.314;11.562;2023-09-18T10:01:40;24.00;90.60
1956;DHT22;978;48.314;11.562;2023-09-18T10:04:14;24.00;90.60
1956;DHT22;978;48.314;11.562;2023-09-18T10:06:44;24.00;90.60
1956;DHT22;978;48.314;11.562;2023-09-18T10:09:14;24.00;90.50
1956;DHT22;978;48.314;11.562;2023-09-18T10:11:45;24.30;90.60
1956;DHT22;978;48.314;11.562;2023-09-18T10:14:17;24.20;90.60
1956;DHT22;978;48.314;11.562;2023-09-18T10:16:47;24.00;90.60
1956;DHT22;978;48.314;11.562;2023-09-18T10:19:27;25.60;91.30
1956;DHT22;978;48.314;11.562;2023-09-18T10:22:01;24.10;90.50
1956;DHT22;978;48.314;11.562;2023-09-18T10:24:39;24.10;90.50
1956;DHT22;978;48.314;11.562;2023-09-18T10:27:07;24.10;90.50
1956;DHT22;978;48.314;11.562;2023-09-18T10:29:36;24.10;90.50
1956;DHT22;978;48.314;11.562;2023-09-18T10:32:06;24.10;90.50
1956;DHT22;978;48.314;11.562;2023-09-18T10:34:36;24.00;90.50
1956;DHT22;978;48.314;11.562;2023-09-18T10:37:08;24.10;90.60
1956;DHT22;978;48.314;11.562;2023-09-18T10:39:41;24.00;90.60
1956;DHT22;978;48.314;11.562;2023-09-18T10:42:10;24.10;90.70
1956;DHT22;978;48.314;11.562;2023-09-18T10:44:41;24.00;90.60
1956;DHT22;978;48.314;11.562;2023-09-18T10:47:09;24.10;90.60
1956;DHT22;978;48.314;11.562;2023-09-18T10:49:44;24.00;90.60
1956;DHT22;978;48.314;11.562;2023-09-18T10:52:11;24.00;90.60
1956;DHT22;978;48.314;11.562;2023-09-18T10:54:40;24.10;90.60
1956;DHT22;978;48.314;11.562;2023-09-18T10:57:06;24.10;90.60
1956;DHT22;978;48.314;11.562;2023-09-18T10:59:43;24.00;90.60
1956;DHT22;978;48.314;11.562;2023-09-18T11:02:10;24.10;90.60
1956;DHT22;978;48.314;11.562;2023-09-18T11:04:44;24.00;90.60
1956;DHT22;978;48.314;11.562;2023-09-18T11:07:19;24.10;90.50
1956;DHT22;978;48.314;11.562;2023-09-18T11:09:47;24.10;90.50
1956;DHT22;978;48.314;11.562;2023-09-18T11:12:16;24.10;90.50
1956;DHT22;978;48.314;11.562;2023-09-18T11:14:45;25.00;90.70
1956;DHT22;978;48.314;11.562;2023-09-18T11:17:33;24.10;90.40
1956;DHT22;978;48.314;11.562;2023-09-18T11:20:06;24.00;90.40
1956;DHT22;978;48.314;11.562;2023-09-18T11:22:36;24.00;90.30
1956;DHT22;978;48.314;11.562;2023-09-18T11:25:34;24.00;90.20
1956;DHT22;978;48.314;11.562;2023-09-18T11:28:03;24.10;90.10
1956;DHT22;978;48.314;11.562;2023-09-18T11:30:34;24.00;90.00
1956;DHT22;978;48.314;11.562;2023-09-18T11:33:04;24.00;90.00
1956;DHT22;978;48.314;11.562;2023-09-18T11:35:33;24.00;89.80
1956;DHT22;978;48.314;11.562;2023-09-18T11:38:08;24.10;89.70
1956;DHT22;978;48.314;11.562;2023-09-18T11:40:38;24.00;89.70
1956;DHT22;978;48.314;11.562;2023-09-18T11:43:23;24.00;89.50
1956;DHT22;978;48.314;11.562;2023-09-18T11:45:51;24.00;89.30
1956;DHT22;978;48.314;11.562;2023-09-18T11:48:23;24.00;89.20
1956;DHT22;978;48.314;11.562;2023-09-18T11:50:56;24.00;89.10
1956;DHT22;978;48.314;11.562;2023-09-18T11:53:24;24.10;89.00
1956;DHT22;978;48.314;11.562;2023-09-18T11:55:51;24.20;88.90
1956;DHT22;978;48.314;11.562;2023-09-18T11:58:19;24.10;88.80
1956;DHT22;978;48.314;11.562;2023-09-18T12:00:49;24.10;89.00
1956;DHT22;978;48.314;11.562;2023-09-18T12:03:18;24.00;89.10
1956;DHT22;978;48.314;11.562;2023-09-18T12:05:57;24.10;89.50
1956;DHT22;978;48.314;11.562;2023-09-18T12:08:25;24.50;90.00
1956;DHT22;978;48.314;11.562;2023-09-18T12:10:53;24.10;89.90
1956;DHT22;978;48.314;11.562;2023-09-18T12:13:23;24.00;90.00
1956;DHT22;978;48.314;11.562;2023-09-18T12:15:56;24.00;90.00
1956;DHT22;978;48.314;11.562;2023-09-18T12:18:24;24.10;90.30
1956;DHT22;978;48.314;11.562;2023-09-18T12:20:54;24.10;90.10
1956;DHT22;978;48.314;11.562;2023-09-18T12:23:23;24.10;90.20
1956;DHT22;978;48.314;11.562;2023-09-18T12:25:56;24.00;90.30
1956;DHT22;978;48.314;11.562;2023-09-18T12:28:25;24.00;90.30
1956;DHT22;978;48.314;11.562;2023-09-18T12:30:55;24.10;90.30
1956;DHT22;978;48.314;11.562;2023-09-18T12:33:25;24.10;90.40
1956;DHT22;978;48.314;11.562;2023-09-18T12:35:52;24.10;90.40
1956;DHT22;978;48.314;11.562;2023-09-18T12:38:20;24.10;90.50
1956;DHT22;978;48.314;11.562;2023-09-18T12:40:53;24.10;90.50
1956;DHT22;978;48.314;11.562;2023-09-18T12:43:30;24.10;90.60
1956;DHT22;978;48.314;11.562;2023-09-18T12:45:59;24.00;90.50
1956;DHT22;978;48.314;11.562;2023-09-18T12:48:27;24.00;90.50
1956;DHT22;978;48.314;11.562;2023-09-18T12:50:54;24.90;90.80
1956;DHT22;978;48.314;11.562;2023-09-18T12:53:24;23.90;90.50
1956;DHT22;978;48.314;11.562;2023-09-18T12:55:53;24.10;90.60
1956;DHT22;978;48.314;11.562;2023-09-18T12:58:21;24.10;90.60
1956;DHT22;978;48.314;11.562;2023-09-18T13:00:50;24.80;90.80
1956;DHT22;978;48.314;11.562;2023-09-18T13:03:18;24.00;90.60
1956;DHT22;978;48.314;11.562;2023-09-18T13:05:46;23.90;90.60
1956;DHT22;978;48.314;11.562;2023-09-18T13:08:13;24.00;90.60
1956;DHT22;978;48.314;11.562;2023-09-18T13:10:46;24.10;90.70
1956;DHT22;978;48.314;11.562;2023-09-18T13:13:30;24.00;90.70
1956;DHT22;978;48.314;11.562;2023-09-18T13:15:59;24.00;90.70
1956;DHT22;978;48.314;11.562;2023-09-18T13:18:30;24.00;90.70
1956;DHT22;978;48.314;11.562;2023-09-18T13:20:58;24.00;90.70
1956;DHT22;978;48.314;11.562;2023-09-18T13:23:29;24.00;90.70
1956;DHT22;978;48.314;11.562;2023-09-18T13:26:00;24.00;90.70
1956;DHT22;978;48.314;11.562;2023-09-18T13:28:28;24.10;90.80
1956;DHT22;978;48.314;11.562;2023-09-18T13:30:58;24.00;90.80
1956;DHT22;978;48.314;11.562;2023-09-18T13:33:27;24.00;90.70
1956;DHT22;978;48.314;11.562;2023-09-18T13:35:54;24.10;90.70
1956;DHT22;978;48.314;11.562;2023-09-18T13:38:22;24.00;90.70
1956;DHT22;978;48.314;11.562;2023-09-18T13:40:49;24.00;90.70
1956;DHT22;978;48.314;11.562;2023-09-18T13:43:16;24.10;90.80
1956;DHT22;978;48.314;11.562;2023-09-18T13:45:46;24.00;90.40
1956;DHT22;978;48.314;11.562;2023-09-18T13:48:13;24.10;90.60
1956;DHT22;978;48.314;11.562;2023-09-18T13:50:42;24.80;90.80
1956;DHT22;978;48.314;11.562;2023-09-18T13:53:11;24.00;90.70
1956;DHT22;978;48.314;11.562;2023-09-18T13:55:40;24.10;90.70
1956;DHT22;978;48.314;11.562;2023-09-18T13:58:14;24.10;90.50
1956;DHT22;978;48.314;11.562;2023-09-18T14:00:43;24.00;90.30
1956;DHT22;978;48.314;11.562;2023-09-18T14:03:11;24.00;90.20
1956;DHT22;978;48.314;11.562;2023-09-18T14:05:42;24.00;90.10
1956;DHT22;978;48.314;11.562;2023-09-18T14:08:11;24.00;90.10
1956;DHT22;978;48.314;11.562;2023-09-18T14:10:38;24.70;90.20
1956;DHT22;978;48.314;11.562;2023-09-18T14:13:05;24.10;90.10
1956;DHT22;978;48.314;11.562;2023-09-18T14:15:33;24.10;90.40
1956;DHT22;978;48.314;11.562;2023-09-18T14:18:01;24.00;90.20
1956;DHT22;978;48.314;11.562;2023-09-18T14:20:31;24.00;90.20
1956;DHT22;978;48.314;11.562;2023-09-18T14:22:59;24.00;90.30
1956;DHT22;978;48.314;11.562;2023-09-18T14:25:28;24.00;90.40
1956;DHT22;978;48.314;11.562;2023-09-18T14:27:55;24.00;90.40
1956;DHT22;978;48.314;11.562;2023-09-18T14:30:23;24.00;90.40
1956;DHT22;978;48.314;11.562;2023-09-18T14:32:57;24.00;90.50
1956;DHT22;978;48.314;11.562;2023-09-18T14:35:26;24.00;90.50
1956;DHT22;978;48.314;11.562;2023-09-18T14:37:54;24.70;90.70
1956;DHT22;978;48.314;11.562;2023-09-18T14:40:23;24.00;90.60
1956;DHT22;978;48.314;11.562;2023-09-18T14:42:49;24.00;90.60
1956;DHT22;978;48.314;11.562;2023-09-18T14:45:17;24.10;90.70
1956;DHT22;978;48.314;11.562;2023-09-18T14:47:45;24.00;90.60
1956;DHT22;978;48.314;11.562;2023-09-18T14:50:12;24.00;90.90
1956;DHT22;978;48.314;11.562;2023-09-18T14:52:39;24.10;90.60
1956;DHT22;978;48.314;11.562;2023-09-18T14:55:08;24.00;90.60
1956;DHT22;978;48.314;11.562;2023-09-18T14:57:35;24.30;90.70
1956;DHT22;978;48.314;11.562;2023-09-18T15:00:04;24.10;90.60
1956;DHT22;978;48.314;11.562;2023-09-18T15:02:31;24.00;90.60
1956;DHT22;978;48.314;11.562;2023-09-18T15:05:01;24.00;90.60
1956;DHT22;978;48.314;11.562;2023-09-18T15:07:31;24.10;90.60
1956;DHT22;978;48.314;11.562;2023-09-18T15:09:59;24.10;90.70
1956;DHT22;978;48.314;11.562;2023-09-18T15:12:32;24.00;90.60
1956;DHT22;978;48.314;11.562;2023-09-18T15:14:59;24.00;90.60
1956;DHT22;978;48.314;11.562;2023-09-18T15:17:27;24.00;90.60
1956;DHT22;978;48.314;11.562;2023-09-18T15:19:54;24.10;90.60
1956;DHT22;978;48.314;11.562;2023-09-18T15:22:23;24.40;90.60
1956;DHT22;978;48.314;11.562;2023-09-18T15:24:50;24.10;90.70
1956;DHT22;978;48.314;11.562;2023-09-18T15:27:17;24.00;90.50
1956;DHT22;978;48.314;11.562;2023-09-18T15:29:51;24.00;90.50
1956;DHT22;978;48.314;11.562;2023-09-18T15:32:17;24.00;90.50
1956;DHT22;978;48.314;11.562;2023-09-18T15:34:45;24.00;90.50
1956;DHT22;978;48.314;11.562;2023-09-18T15:37:14;25.60;90.90
1956;DHT22;978;48.314;11.562;2023-09-18T15:39:42;24.10;90.60
1956;DHT22;978;48.314;11.562;2023-09-18T15:42:18;25.40;90.90
1956;DHT22;978;48.314;11.562;2023-09-18T15:44:47;24.10;90.50
1956;DHT22;978;48.314;11.562;2023-09-18T15:47:14;24.00;90.50
1956;DHT22;978;48.314;11.562;2023-09-18T15:49:42;24.00;90.60
1956;DHT22;978;48.314;11.562;2023-09-18T15:52:12;24.10;90.50
1956;DHT22;978;48.314;11.562;2023-09-18T15:54:38;24.00;90.50
1956;DHT22;978;48.314;11.562;2023-09-18T15:57:06;24.00;90.50
1956;DHT22;978;48.314;11.562;2023-09-18T15:59:32;24.10;90.50
1956;DHT22;978;48.314;11.562;2023-09-18T16:02:00;24.10;90.60
1956;DHT22;978;48.314;11.562;2023-09-18T16:04:31;24.10;90.50
1956;DHT22;978;48.314;11.562;2023-09-18T16:06:57;24.10;90.50
1956;DHT22;978;48.314;11.562;2023-09-18T16:09:25;24.10;90.50
1956;DHT22;978;48.314;11.562;2023-09-18T16:11:54;24.00;90.50
1956;DHT22;978;48.314;11.562;2023-09-18T16:14:23;24.00;90.40